EKBI/BLL METAR and TAF weather

Enter ICAO airport designator
Station Type Date Time Source
EKBI METAR 2021/01/22 06:20 UTC NOAA

EKBI 220620Z AUTO 21010KT 180V240 9999 SHRA BKN007/// OVC034/// 04/03 Q0978


Station Type Date Time Source
EKBI Decoded METAR 2021/01/22 06:20 UTC NOAA

Billund Lufthavn, Denmark (EKBI) 55-44N 009-10E 79M
Jan 22, 2021 - 01:20 AM EST / 2021.01.22 0620 UTC
Wind: from the SSW (210 degrees) at 12 MPH (10 KT) (direction variable):0
Visibility: greater than 7 mile(s):0
Sky conditions: overcast
Weather: rain showers
Temperature: 39 F (4 C)
Dew Point: 37 F (3 C)
Relative Humidity: 93%
Pressure (altimeter): 28.88 in. Hg (0978 hPa)
ob: EKBI 220620Z AUTO 21010KT 180V240 9999 SHRA BKN007/// OVC034/// 04/03 Q0978
cycle: 6

Station Type Date Time Source
EKBI TAF 2021/01/22 06:30 UTC NOAA

TAF EKBI 220515Z 2206/2306 21015KT 9999 BKN020
TEMPO 2206/2213 FEW020CB
BECMG 2209/2212 23024G38KT
TEMPO 2213/2219 4000 RA BKN010 SCT015CB
BECMG 2215/2218 24015KT
TEMPO 2219/2224 SHRA BKN010 SCT015CB
BECMG 2223/2301 21005KT

Example: see airport list